createdAt,value
2023-12-08T00:02:16.232Z,97103.44
2023-12-08T00:12:19.665Z,97085.16
2023-12-08T00:22:23.037Z,97078.30
2023-12-08T00:32:26.834Z,97080.30
2023-12-08T00:42:30.233Z,97060.18
2023-12-08T00:52:33.456Z,97041.59
2023-12-08T01:02:37.083Z,97049.79
2023-12-08T01:12:40.782Z,97054.05
2023-12-08T01:22:44.009Z,97067.61
2023-12-08T01:32:47.497Z,97074.28
2023-12-08T01:42:51.593Z,97069.48
2023-12-08T01:52:54.774Z,97063.43
2023-12-08T02:02:58.613Z,97049.39
2023-12-08T02:13:02.047Z,97054.73
2023-12-08T02:23:07.363Z,97063.68
2023-12-08T02:33:18.659Z,97060.63
2023-12-08T02:43:21.986Z,97060.02
2023-12-08T02:53:25.231Z,97052.77
2023-12-08T03:03:28.517Z,97059.96
2023-12-08T03:13:31.892Z,97071.81
2023-12-08T03:23:36.129Z,97082.69
2023-12-08T03:33:39.580Z,97084.52
2023-12-08T03:43:43.000Z,97087.70
2023-12-08T03:53:46.433Z,97087.57
2023-12-08T04:03:49.925Z,97087.13
2023-12-08T04:13:53.108Z,97086.73
2023-12-08T04:23:56.502Z,97082.10
2023-12-08T04:34:00.059Z,97077.00
2023-12-08T04:44:04.262Z,97070.55
2023-12-08T04:54:07.849Z,97066.54
2023-12-08T05:04:11.314Z,97073.58
2023-12-08T05:14:15.413Z,97080.81
2023-12-08T05:24:18.665Z,97070.77
2023-12-08T05:34:22.012Z,97059.95
2023-12-08T05:44:25.333Z,97055.93
2023-12-08T05:54:28.780Z,97053.71
2023-12-08T06:04:32.378Z,97046.65
2023-12-08T06:14:35.538Z,97050.11
2023-12-08T06:24:38.913Z,97049.97
2023-12-08T06:34:42.212Z,97051.65
2023-12-08T06:44:45.686Z,97052.92
2023-12-08T06:54:50.370Z,97036.06
2023-12-08T07:04:53.619Z,97032.71
2023-12-08T07:14:56.779Z,97039.07
2023-12-08T07:25:01.147Z,97042.00
2023-12-08T07:35:05.980Z,97041.68
2023-12-08T07:45:10.557Z,97050.06
2023-12-08T07:55:14.014Z,97047.60
2023-12-08T08:05:17.663Z,97044.50
2023-12-08T08:15:21.452Z,97046.27
2023-12-08T08:25:26.734Z,97051.70
2023-12-08T08:35:30.041Z,97058.42
2023-12-08T08:45:34.211Z,97054.84
2023-12-08T08:55:37.463Z,97045.95
2023-12-08T09:05:43.303Z,97033.80
2023-12-08T09:15:46.716Z,97029.59
2023-12-08T09:25:49.870Z,97023.32
2023-12-08T09:35:53.346Z,97021.33
2023-12-08T09:45:57.541Z,97016.43
2023-12-08T09:56:01.999Z,97010.38
2023-12-08T10:06:06.902Z,96991.71
2023-12-08T10:16:11.151Z,96960.54
2023-12-08T10:26:15.173Z,96943.50
2023-12-08T10:36:21.673Z,96915.41
2023-12-08T10:46:26.404Z,96909.83
2023-12-08T10:56:29.651Z,96899.94
2023-12-08T11:06:43.753Z,96913.63
2023-12-08T11:17:05.671Z,96917.31
2023-12-08T11:27:24.027Z,96920.69
2023-12-08T11:37:30.297Z,96920.72
2023-12-08T11:47:36.709Z,96917.05
2023-12-08T11:58:05.537Z,96902.30
2023-12-08T12:08:09.678Z,96903.92
2023-12-08T12:18:15.494Z,96896.56
2023-12-08T12:28:19.345Z,96890.48
2023-12-08T12:38:22.634Z,96880.23
2023-12-08T12:48:27.385Z,96864.64
2023-12-08T12:58:30.742Z,96862.84
2023-12-08T13:08:44.786Z,96850.23
2023-12-08T13:18:49.888Z,96844.66
2023-12-08T13:28:53.578Z,96832.44
2023-12-08T13:38:56.972Z,96830.82
2023-12-08T13:49:00.619Z,96839.14
2023-12-08T13:59:04.229Z,96855.96
2023-12-08T14:09:07.509Z,96868.39
2023-12-08T14:19:11.281Z,96868.63
2023-12-08T14:29:14.874Z,96869.79
2023-12-08T14:39:21.320Z,96869.02
2023-12-08T14:49:24.659Z,96877.95
2023-12-08T14:59:27.977Z,96875.38
2023-12-08T15:09:32.347Z,96884.50
2023-12-08T15:19:38.956Z,96891.09
2023-12-08T15:29:43.991Z,96889.37
2023-12-08T15:39:49.020Z,96882.32
2023-12-08T15:49:52.458Z,96871.48
2023-12-08T15:59:57.087Z,96875.52
2023-12-08T16:10:00.475Z,96886.12
2023-12-08T16:20:04.474Z,96897.73
2023-12-08T16:30:09.852Z,96905.02
2023-12-08T16:40:13.729Z,96909.45
2023-12-08T16:50:16.891Z,96904.88
2023-12-08T17:00:20.743Z,96894.23
2023-12-08T17:10:24.137Z,96882.99
2023-12-08T17:20:27.721Z,96878.30
2023-12-08T17:30:32.188Z,96878.05
2023-12-08T17:40:35.484Z,96883.73
2023-12-08T17:50:39.028Z,96884.87
2023-12-08T18:00:42.471Z,96885.50
2023-12-08T18:10:47.722Z,96887.04
2023-12-08T18:20:54.040Z,96897.66
2023-12-08T18:30:57.316Z,96917.17
2023-12-08T18:41:00.966Z,96923.09
2023-12-08T18:51:04.913Z,96932.63
2023-12-08T19:01:09.971Z,96948.68
2023-12-08T19:11:15.715Z,96959.98
2023-12-08T19:21:19.387Z,96967.52
2023-12-08T19:31:22.907Z,96963.98
2023-12-08T19:41:28.354Z,96962.22
2023-12-08T19:51:31.890Z,96966.98
2023-12-08T20:01:35.083Z,96962.32
2023-12-08T20:11:41.296Z,96954.48
2023-12-08T20:21:45.284Z,96957.95
2023-12-08T20:31:49.644Z,96958.98
2023-12-08T20:41:53.034Z,96953.09
2023-12-08T20:51:56.405Z,96955.34
2023-12-08T21:01:59.790Z,96941.78
2023-12-08T21:12:04.974Z,96954.94
2023-12-08T21:22:08.336Z,96960.92
2023-12-08T21:32:12.054Z,96960.35
2023-12-08T21:42:15.837Z,96961.27
2023-12-08T21:52:19.327Z,96959.54
2023-12-08T22:02:22.905Z,96960.56
2023-12-08T22:12:26.248Z,96948.30
2023-12-08T22:22:32.460Z,96946.39
2023-12-08T22:32:36.073Z,96946.92
2023-12-08T22:42:39.559Z,96944.74
2023-12-08T22:52:42.940Z,96936.36
2023-12-08T23:02:46.342Z,96934.33
2023-12-08T23:12:49.551Z,96924.08
2023-12-08T23:22:52.801Z,96919.51
2023-12-08T23:32:56.043Z,96916.61
2023-12-08T23:42:59.502Z,96914.33
2023-12-08T23:53:02.728Z,96909.89
